Time;durP1;ratioP1;P1;durP2;ratioP2;P2;SDS_P1;SDS_P2;PMS_P1;PMS_P2;Temp;Humidity;BMP_temperature;BMP_pressure;BME280_temperature;BME280_humidity;BME280_pressure;Samples;Min_cycle;Max_cycle;Signal;HPM_P1;HPM_P2
2023/11/11 00:00:40;;;;;;;;;6.00;3.00;;;;;-144.24;100.00;60536.00;4978802;28;47426;-68
2023/11/11 00:03:06;;;;;;;;;5.33;3.33;;;;;-144.24;100.00;60536.00;4982360;28;48754;-72
2023/11/11 00:05:32;;;;;;;;;4.00;4.00;;;;;-144.24;100.00;60536.00;4961169;28;62851;-72
2023/11/11 00:07:57;;;;;;;;;3.00;3.00;;;;;-144.24;100.00;60536.00;4991663;28;45467;-69
2023/11/11 00:10:23;;;;;;;;;4.33;3.33;;;;;-144.24;100.00;60536.00;4986783;28;46763;-69
2023/11/11 00:12:48;;;;;;;;;2.67;2.00;;;;;-144.24;100.00;60536.00;4959263;28;62348;-68
2023/11/11 00:15:14;;;;;;;;;2.00;2.00;;;;;-144.24;100.00;60536.00;4977154;28;61695;-69
2023/11/11 00:17:39;;;;;;;;;5.33;2.33;;;;;-144.24;100.00;60536.00;4980713;28;45360;-69
2023/11/11 00:20:12;;;;;;;;;2.00;2.00;;;;;-144.24;100.00;60536.00;4986556;28;65667;-69
2023/11/11 00:22:39;;;;;;;;;3.00;2.00;;;;;-144.24;100.00;60536.00;4989318;28;45469;-69
2023/11/11 00:25:04;;;;;;;;;2.67;2.00;;;;;-144.24;100.00;60536.00;4979888;28;45462;-72
2023/11/11 00:27:30;;;;;;;;;2.33;2.00;;;;;-144.24;100.00;60536.00;4978459;28;45771;-69
2023/11/11 00:29:56;;;;;;;;;10.33;3.00;;;;;-144.24;100.00;60536.00;4981744;28;46682;-71
2023/11/11 00:32:22;;;;;;;;;2.67;2.00;;;;;-144.24;100.00;60536.00;4982579;28;45949;-69
2023/11/11 00:34:47;;;;;;;;;2.00;2.00;;;;;-144.24;100.00;60536.00;4985880;28;45519;-69
2023/11/11 00:37:12;;;;;;;;;2.67;2.00;;;;;-144.24;100.00;60536.00;4985836;28;45530;-68
2023/11/11 00:39:38;;;;;;;;;2.00;2.00;;;;;-144.24;100.00;60536.00;4978613;28;74877;-68
2023/11/11 00:42:03;;;;;;;;;3.00;2.00;;;;;-144.24;100.00;60536.00;4973260;28;72747;-69
2023/11/11 00:44:28;;;;;;;;;2.67;2.00;;;;;-144.24;100.00;60536.00;4977582;28;45516;-73
2023/11/11 00:46:54;;;;;;;;;2.00;2.00;;;;;-144.24;100.00;60536.00;4972468;28;45593;-68
2023/11/11 00:49:19;;;;;;;;;2.00;2.00;;;;;-144.24;100.00;60536.00;4977735;28;46228;-70
2023/11/11 00:51:44;;;;;;;;;3.33;3.33;;;;;-144.24;100.00;60536.00;4970936;28;72856;-68
2023/11/11 00:54:10;;;;;;;;;3.00;2.00;;;;;-144.24;100.00;60536.00;4980588;28;45408;-68
2023/11/11 00:56:36;;;;;;;;;2.00;2.00;;;;;-144.24;100.00;60536.00;4982181;28;46637;-68
2023/11/11 00:59:01;;;;;;;;;3.00;3.00;;;;;-144.24;100.00;60536.00;4983943;28;47387;-67
2023/11/11 01:01:26;;;;;;;;;3.00;1.00;;;;;-144.24;100.00;60536.00;4974729;28;73550;-68
2023/11/11 01:03:52;;;;;;;;;3.67;2.00;;;;;-144.24;100.00;60536.00;4983706;28;45393;-69
2023/11/11 01:06:18;;;;;;;;;2.00;2.00;;;;;-144.24;100.00;60536.00;4974870;28;45304;-70
2023/11/11 01:08:43;;;;;;;;;3.00;2.00;;;;;-144.24;100.00;60536.00;4983254;28;46966;-69
2023/11/11 01:11:08;;;;;;;;;2.00;2.00;;;;;-144.24;100.00;60536.00;4989639;28;46745;-68
2023/11/11 01:13:35;;;;;;;;;3.00;1.33;;;;;-144.24;100.00;60536.00;4983050;28;45251;-68
2023/11/11 01:16:01;;;;;;;;;4.67;4.00;;;;;-144.24;100.00;60536.00;4986104;28;45332;-69
2023/11/11 01:18:29;;;;;;;;;3.00;3.00;;;;;-144.24;100.00;60536.00;4978683;28;46526;-68
2023/11/11 01:20:57;;;;;;;;;3.00;2.33;;;;;-144.24;100.00;60536.00;4996776;28;45384;-68
2023/11/11 01:23:23;;;;;;;;;2.33;2.33;;;;;-144.24;100.00;60536.00;4988410;28;45313;-69
2023/11/11 01:25:48;;;;;;;;;2.67;2.67;;;;;-144.24;100.00;60536.00;4974825;28;45666;-69
2023/11/11 01:28:13;;;;;;;;;3.67;2.33;;;;;-144.24;100.00;60536.00;4979932;28;62530;-69
2023/11/11 01:30:39;;;;;;;;;2.00;2.00;;;;;-144.24;100.00;60536.00;4972893;28;71389;-73
2023/11/11 01:33:06;;;;;;;;;4.00;3.00;;;;;-144.24;100.00;60536.00;4981329;28;60522;-71
2023/11/11 01:35:31;;;;;;;;;2.00;1.00;;;;;-144.24;100.00;60536.00;4965065;28;45599;-69
2023/11/11 01:37:57;;;;;;;;;2.33;1.00;;;;;-144.24;100.00;60536.00;4980021;28;56580;-70
2023/11/11 01:40:22;;;;;;;;;1.00;1.00;;;;;-144.24;100.00;60536.00;4979250;28;59099;-72
2023/11/11 01:42:48;;;;;;;;;2.00;2.00;;;;;-144.24;100.00;60536.00;4977192;28;54264;-70
2023/11/11 01:45:13;;;;;;;;;2.00;2.00;;;;;-144.24;100.00;60536.00;4976151;28;46231;-70
2023/11/11 01:47:39;;;;;;;;;4.67;2.00;;;;;-144.24;100.00;60536.00;4974984;28;75923;-71
2023/11/11 01:50:05;;;;;;;;;4.67;2.00;;;;;-144.24;100.00;60536.00;4962729;28;45491;-70
2023/11/11 01:52:31;;;;;;;;;1.00;1.00;;;;;-144.24;100.00;60536.00;4974579;28;45534;-70
2023/11/11 01:54:57;;;;;;;;;3.00;1.00;;;;;-144.24;100.00;60536.00;4964572;28;45325;-68
2023/11/11 01:57:22;;;;;;;;;1.00;1.00;;;;;-144.24;100.00;60536.00;4975010;28;46567;-69
2023/11/11 01:59:48;;;;;;;;;1.00;1.00;;;;;-144.24;100.00;60536.00;4958882;28;45561;-71
2023/11/11 02:02:15;;;;;;;;;0.67;0.67;;;;;-144.24;100.00;60536.00;4976758;28;49957;-70
2023/11/11 02:04:41;;;;;;;;;3.00;1.67;;;;;-144.24;100.00;60536.00;4975842;28;45483;-69
2023/11/11 02:07:06;;;;;;;;;3.33;2.00;;;;;-144.24;100.00;60536.00;4976224;28;46185;-69
2023/11/11 02:09:32;;;;;;;;;3.00;2.00;;;;;-144.24;100.00;60536.00;4971436;28;74846;-70
2023/11/11 02:11:57;;;;;;;;;2.33;1.00;;;;;-144.24;100.00;60536.00;4974598;28;69510;-70
2023/11/11 02:14:23;;;;;;;;;3.67;1.67;;;;;-144.24;100.00;60536.00;4974031;28;45285;-72
2023/11/11 02:16:48;;;;;;;;;2.33;2.33;;;;;-144.24;100.00;60536.00;4963003;28;45480;-69
2023/11/11 02:19:14;;;;;;;;;2.00;2.00;;;;;-144.24;100.00;60536.00;4975642;28;45411;-69
2023/11/11 02:21:39;;;;;;;;;3.00;1.33;;;;;-144.24;100.00;60536.00;4969991;28;57937;-70
2023/11/11 02:24:05;;;;;;;;;2.67;1.00;;;;;-144.24;100.00;60536.00;4976270;28;57086;-70
2023/11/11 02:26:30;;;;;;;;;2.00;2.00;;;;;-144.24;100.00;60536.00;4958203;28;45452;-69
2023/11/11 02:28:55;;;;;;;;;3.00;2.67;;;;;-144.24;100.00;60536.00;4974988;28;71134;-72
2023/11/11 02:31:22;;;;;;;;;1.33;1.33;;;;;-144.24;100.00;60536.00;4975402;28;69183;-69
2023/11/11 02:33:47;;;;;;;;;2.33;2.33;;;;;-144.24;100.00;60536.00;4976598;28;45514;-72
2023/11/11 02:36:13;;;;;;;;;2.00;1.00;;;;;-144.24;100.00;60536.00;4973439;28;47325;-69
2023/11/11 02:38:38;;;;;;;;;3.00;1.00;;;;;-144.24;100.00;60536.00;4958890;28;45424;-69
2023/11/11 02:41:05;;;;;;;;;5.00;3.00;;;;;-144.24;100.00;60536.00;4970471;28;45310;-69
2023/11/11 02:43:30;;;;;;;;;2.67;1.00;;;;;-144.24;100.00;60536.00;4970517;28;45595;-69
2023/11/11 02:45:56;;;;;;;;;7.00;1.00;;;;;-144.24;100.00;60536.00;4976031;28;47216;-71
2023/11/11 02:48:21;;;;;;;;;3.00;1.33;;;;;-144.24;100.00;60536.00;4975124;28;74085;-69
2023/11/11 02:50:46;;;;;;;;;2.00;2.00;;;;;-144.24;100.00;60536.00;4974873;28;69179;-69
2023/11/11 02:53:12;;;;;;;;;2.00;2.00;;;;;-144.24;100.00;60536.00;4970121;28;66713;-69
2023/11/11 02:55:37;;;;;;;;;2.00;2.00;;;;;-144.24;100.00;60536.00;4963585;28;74302;-69
2023/11/11 02:58:02;;;;;;;;;4.00;2.00;;;;;-144.24;100.00;60536.00;4975053;28;70748;-68
2023/11/11 03:00:28;;;;;;;;;1.33;1.33;;;;;-144.24;100.00;60536.00;4974589;28;69008;-69
2023/11/11 03:02:53;;;;;;;;;1.33;1.33;;;;;-144.24;100.00;60536.00;4975311;28;45470;-71
2023/11/11 03:05:19;;;;;;;;;2.67;2.00;;;;;-144.24;100.00;60536.00;4976115;28;45344;-70
2023/11/11 03:07:44;;;;;;;;;4.00;2.33;;;;;-144.24;100.00;60536.00;4972929;28;73784;-69
2023/11/11 03:10:11;;;;;;;;;3.00;3.00;;;;;-144.24;100.00;60536.00;4966788;28;69128;-67
2023/11/11 03:12:36;;;;;;;;;2.00;2.00;;;;;-144.24;100.00;60536.00;4976155;28;46224;-68
2023/11/11 03:15:02;;;;;;;;;3.00;3.00;;;;;-144.24;100.00;60536.00;4975076;28;47668;-68
2023/11/11 03:17:28;;;;;;;;;3.33;2.00;;;;;-144.24;100.00;60536.00;4972772;28;45422;-70
2023/11/11 03:19:54;;;;;;;;;3.00;1.00;;;;;-144.24;100.00;60536.00;4975859;28;45515;-69
2023/11/11 03:22:20;;;;;;;;;3.67;1.00;;;;;-144.24;100.00;60536.00;4974741;28;45395;-71
2023/11/11 03:24:45;;;;;;;;;1.00;1.00;;;;;-144.24;100.00;60536.00;4975552;28;54279;-68
2023/11/11 03:27:11;;;;;;;;;2.00;1.00;;;;;-144.24;100.00;60536.00;4975456;28;58910;-68
2023/11/11 03:29:36;;;;;;;;;3.33;1.00;;;;;-144.24;100.00;60536.00;4975225;28;45548;-70
2023/11/11 03:32:01;;;;;;;;;3.33;2.00;;;;;-144.24;100.00;60536.00;4974803;28;58487;-69
2023/11/11 03:34:27;;;;;;;;;1.67;1.67;;;;;-144.24;100.00;60536.00;4970265;28;47296;-69
2023/11/11 03:36:52;;;;;;;;;1.00;1.00;;;;;-144.24;100.00;60536.00;4974203;28;53681;-68
2023/11/11 03:39:17;;;;;;;;;1.00;1.00;;;;;-144.24;100.00;60536.00;4972352;28;70722;-68
2023/11/11 03:41:43;;;;;;;;;2.00;2.00;;;;;-144.24;100.00;60536.00;4979337;28;45339;-71
2023/11/11 03:44:11;;;;;;;;;3.00;2.00;;;;;-144.24;100.00;60536.00;4972774;28;76128;-69
2023/11/11 03:46:36;;;;;;;;;2.00;2.00;;;;;-144.24;100.00;60536.00;4974093;28;45469;-68
2023/11/11 03:49:02;;;;;;;;;3.33;1.00;;;;;-144.24;100.00;60536.00;4974454;28;46202;-70
2023/11/11 03:51:27;;;;;;;;;2.00;2.00;;;;;-144.24;100.00;60536.00;4972374;28;56073;-68
2023/11/11 03:53:52;;;;;;;;;1.00;1.00;;;;;-144.24;100.00;60536.00;4974637;28;46423;-69
2023/11/11 03:56:19;;;;;;;;;8.00;1.00;;;;;-144.24;100.00;60536.00;4973471;28;45213;-71
2023/11/11 03:58:44;;;;;;;;;1.00;1.00;;;;;-144.24;100.00;60536.00;4978559;28;45463;-70
2023/11/11 04:01:10;;;;;;;;;6.00;2.00;;;;;-144.24;100.00;60536.00;4977489;28;66543;-71
2023/11/11 04:03:39;;;;;;;;;1.00;1.00;;;;;-144.24;100.00;60536.00;4978059;28;46537;-69
2023/11/11 04:06:09;;;;;;;;;1.00;1.00;;;;;-144.24;100.00;60536.00;4974563;28;45472;-68
2023/11/11 04:08:34;;;;;;;;;1.67;1.00;;;;;-144.24;100.00;60536.00;4974977;28;46699;-71
2023/11/11 04:11:02;;;;;;;;;3.67;2.00;;;;;-144.24;100.00;60536.00;4976279;28;45285;-70
2023/11/11 04:13:27;;;;;;;;;1.00;1.00;;;;;-144.24;100.00;60536.00;4972763;28;47375;-69
2023/11/11 04:15:53;;;;;;;;;0.00;0.00;;;;;-144.24;100.00;60536.00;4978201;28;45275;-68
2023/11/11 04:18:18;;;;;;;;;1.00;1.00;;;;;-144.24;100.00;60536.00;4971477;28;69609;-69
2023/11/11 04:20:44;;;;;;;;;1.00;1.00;;;;;-144.24;100.00;60536.00;4967044;28;67201;-73
2023/11/11 04:23:09;;;;;;;;;2.67;1.33;;;;;-144.24;100.00;60536.00;4978429;28;45811;-69
2023/11/11 04:25:35;;;;;;;;;1.33;0.67;;;;;-144.24;100.00;60536.00;4977493;28;68187;-68
2023/11/11 04:28:00;;;;;;;;;1.00;1.00;;;;;-144.24;100.00;60536.00;4978545;28;45356;-71
2023/11/11 04:30:25;;;;;;;;;2.33;1.00;;;;;-144.24;100.00;60536.00;4977846;28;45439;-73
2023/11/11 04:32:51;;;;;;;;;4.00;2.00;;;;;-144.24;100.00;60536.00;4976894;28;62858;-69
2023/11/11 04:35:17;;;;;;;;;1.00;1.00;;;;;-144.24;100.00;60536.00;4978105;28;45706;-69
2023/11/11 04:37:42;;;;;;;;;2.00;1.00;;;;;-144.24;100.00;60536.00;4969807;28;45403;-69
2023/11/11 04:40:08;;;;;;;;;1.33;1.33;;;;;-144.24;100.00;60536.00;4971486;28;66447;-70
2023/11/11 04:42:33;;;;;;;;;2.00;2.00;;;;;-144.24;100.00;60536.00;4977027;28;47552;-73
2023/11/11 04:44:59;;;;;;;;;2.33;1.00;;;;;-144.24;100.00;60536.00;4971984;28;45390;-68
2023/11/11 04:47:24;;;;;;;;;3.00;1.00;;;;;-144.24;100.00;60536.00;4977286;28;45892;-70
2023/11/11 04:49:50;;;;;;;;;2.00;1.00;;;;;-144.24;100.00;60536.00;4976748;28;45544;-69
2023/11/11 04:52:16;;;;;;;;;1.67;1.00;;;;;-144.24;100.00;60536.00;4976709;28;45273;-68
2023/11/11 04:54:42;;;;;;;;;3.33;1.00;;;;;-144.24;100.00;60536.00;4975753;28;45501;-69
2023/11/11 04:57:07;;;;;;;;;1.00;1.00;;;;;-144.24;100.00;60536.00;4978250;28;45312;-68
2023/11/11 04:59:32;;;;;;;;;3.00;1.33;;;;;-144.24;100.00;60536.00;4970657;28;45674;-69
2023/11/11 05:01:58;;;;;;;;;2.00;0.67;;;;;-144.24;100.00;60536.00;4976728;28;74972;-68
2023/11/11 05:04:23;;;;;;;;;2.67;1.00;;;;;-144.24;100.00;60536.00;4975086;28;51202;-68
2023/11/11 05:06:49;;;;;;;;;3.67;1.00;;;;;-144.24;100.00;60536.00;4977206;28;68171;-68
2023/11/11 05:09:19;;;;;;;;;3.00;2.00;;;;;-144.24;100.00;60536.00;4977522;28;45499;-68
2023/11/11 05:11:45;;;;;;;;;1.33;1.00;;;;;-144.24;100.00;60536.00;4976067;28;46588;-69
2023/11/11 05:14:13;;;;;;;;;4.00;1.00;;;;;-144.24;100.00;60536.00;4977426;28;45256;-70
2023/11/11 05:16:39;;;;;;;;;1.00;1.00;;;;;-144.24;100.00;60536.00;4977197;28;45359;-67
2023/11/11 05:19:08;;;;;;;;;4.00;1.00;;;;;-144.24;100.00;60536.00;4977180;28;45293;-68
2023/11/11 05:21:34;;;;;;;;;2.00;1.00;;;;;-144.24;100.00;60536.00;4977632;28;46418;-70
2023/11/11 05:24:00;;;;;;;;;3.00;1.00;;;;;-144.24;100.00;60536.00;4976699;28;45511;-68
2023/11/11 05:26:30;;;;;;;;;2.00;1.00;;;;;-144.24;100.00;60536.00;4977206;28;45405;-68
2023/11/11 05:28:56;;;;;;;;;1.33;1.33;;;;;-144.24;100.00;60536.00;4977308;28;45535;-69
2023/11/11 05:31:31;;;;;;;;;4.00;1.00;;;;;-144.24;100.00;60536.00;4975597;28;48183;-68
2023/11/11 05:33:59;;;;;;;;;2.33;1.00;;;;;-144.24;100.00;60536.00;4976871;28;45313;-67
2023/11/11 05:36:26;;;;;;;;;1.25;1.25;;;;;-144.24;100.00;60536.00;4972332;28;45487;-68
2023/11/11 05:38:52;;;;;;;;;4.00;1.00;;;;;-144.24;100.00;60536.00;4985029;28;45513;-72
2023/11/11 05:41:18;;;;;;;;;1.00;1.00;;;;;-144.24;100.00;60536.00;4976563;28;47499;-69
2023/11/11 05:43:43;;;;;;;;;0.00;0.00;;;;;-144.24;100.00;60536.00;4976662;28;45740;-68
2023/11/11 05:46:09;;;;;;;;;1.00;1.00;;;;;-144.24;100.00;60536.00;4976278;28;60162;-70
2023/11/11 05:48:37;;;;;;;;;1.00;1.00;;;;;-144.24;100.00;60536.00;4966486;28;68349;-68
2023/11/11 05:51:04;;;;;;;;;1.00;0.00;;;;;-144.24;100.00;60536.00;4977128;28;46754;-68
2023/11/11 05:53:30;;;;;;;;;2.00;2.00;;;;;-144.24;100.00;60536.00;4976083;28;45548;-69
2023/11/11 05:55:56;;;;;;;;;3.00;2.00;;;;;-144.24;100.00;60536.00;4977111;28;45450;-70
2023/11/11 05:58:21;;;;;;;;;5.33;1.00;;;;;-144.24;100.00;60536.00;4966366;28;68212;-68
2023/11/11 06:00:46;;;;;;;;;0.00;0.00;;;;;-144.24;100.00;60536.00;4970923;28;76671;-70
2023/11/11 06:03:12;;;;;;;;;1.00;1.00;;;;;-144.24;100.00;60536.00;4976407;28;45399;-68
2023/11/11 06:05:37;;;;;;;;;0.33;0.33;;;;;-144.24;100.00;60536.00;4977144;28;45470;-68
2023/11/11 06:08:02;;;;;;;;;1.67;1.00;;;;;-144.24;100.00;60536.00;4976409;28;58290;-68
2023/11/11 06:10:29;;;;;;;;;1.00;1.00;;;;;-144.24;100.00;60536.00;4976643;28;46201;-68
2023/11/11 06:12:57;;;;;;;;;2.00;1.00;;;;;-144.24;100.00;60536.00;4958353;28;45454;-69
2023/11/11 06:15:24;;;;;;;;;2.00;2.00;;;;;-144.24;100.00;60536.00;4979036;28;45470;-69
2023/11/11 06:17:49;;;;;;;;;1.00;1.00;;;;;-144.24;100.00;60536.00;4974338;28;45410;-68
2023/11/11 06:20:15;;;;;;;;;1.00;1.00;;;;;-144.24;100.00;60536.00;4975994;28;71503;-68
2023/11/11 06:22:40;;;;;;;;;2.00;2.00;;;;;-144.24;100.00;60536.00;4976480;28;45394;-69
2023/11/11 06:25:07;;;;;;;;;1.33;1.00;;;;;-144.24;100.00;60536.00;4972448;28;45504;-69
2023/11/11 06:27:32;;;;;;;;;1.00;1.00;;;;;-144.24;100.00;60536.00;4950962;28;45671;-68
2023/11/11 06:29:58;;;;;;;;;1.00;1.00;;;;;-144.24;100.00;60536.00;4975994;28;46711;-69
2023/11/11 06:32:25;;;;;;;;;1.00;1.00;;;;;-144.24;100.00;60536.00;4976296;28;45867;-71
2023/11/11 06:34:50;;;;;;;;;1.67;1.67;;;;;-144.24;100.00;60536.00;4976121;28;45431;-68
2023/11/11 06:37:16;;;;;;;;;4.67;3.00;;;;;-144.24;100.00;60536.00;4975421;28;68281;-69
2023/11/11 06:39:41;;;;;;;;;1.00;1.00;;;;;-144.24;100.00;60536.00;4971586;28;47629;-68
2023/11/11 06:42:07;;;;;;;;;2.00;2.00;;;;;-144.24;100.00;60536.00;4974005;28;45671;-68
2023/11/11 06:44:33;;;;;;;;;2.67;1.00;;;;;-144.24;100.00;60536.00;4976587;28;45439;-67
2023/11/11 06:46:58;;;;;;;;;1.00;1.00;;;;;-144.24;100.00;60536.00;4971136;28;45333;-68
2023/11/11 06:49:24;;;;;;;;;1.33;1.00;;;;;-144.24;100.00;60536.00;4970167;28;74202;-68
2023/11/11 06:51:49;;;;;;;;;3.00;1.67;;;;;-144.24;100.00;60536.00;4975142;28;45490;-69
2023/11/11 06:54:15;;;;;;;;;1.00;1.00;;;;;-144.24;100.00;60536.00;4974727;28;68182;-71
2023/11/11 06:56:40;;;;;;;;;1.67;1.00;;;;;-144.24;100.00;60536.00;4975294;28;45394;-68
2023/11/11 06:59:08;;;;;;;;;6.67;1.00;;;;;-144.24;100.00;60536.00;4975664;28;46426;-68
2023/11/11 07:01:33;;;;;;;;;3.00;1.00;;;;;-144.24;100.00;60536.00;4975952;28;45402;-70
2023/11/11 07:04:00;;;;;;;;;3.67;1.33;;;;;-144.24;100.00;60536.00;4973180;28;45487;-69
2023/11/11 07:06:26;;;;;;;;;2.00;0.67;;;;;-144.24;100.00;60536.00;4976128;28;45546;-67
2023/11/11 07:08:55;;;;;;;;;4.33;1.00;;;;;-144.24;100.00;60536.00;4974860;28;45887;-68
2023/11/11 07:11:20;;;;;;;;;7.33;2.00;;;;;-144.24;100.00;60536.00;4978248;28;45516;-68
2023/11/11 07:13:46;;;;;;;;;3.67;2.33;;;;;-144.24;100.00;60536.00;4983187;28;45392;-69
2023/11/11 07:16:14;;;;;;;;;1.67;1.67;;;;;-144.24;100.00;60536.00;4983215;28;45513;-68
2023/11/11 07:18:40;;;;;;;;;1.67;1.00;;;;;-144.24;100.00;60536.00;4978586;28;45720;-68
2023/11/11 07:21:06;;;;;;;;;2.33;1.00;;;;;-144.24;100.00;60536.00;4973310;28;45335;-69
2023/11/11 07:23:31;;;;;;;;;1.00;1.00;;;;;-144.24;100.00;60536.00;4979433;28;57332;-69
2023/11/11 07:25:57;;;;;;;;;1.00;1.00;;;;;-144.24;100.00;60536.00;4978949;28;68388;-70
2023/11/11 07:28:24;;;;;;;;;6.33;2.00;;;;;-144.24;100.00;60536.00;4979112;28;47651;-68
2023/11/11 07:30:49;;;;;;;;;2.00;2.00;;;;;-144.24;100.00;60536.00;4978798;28;45598;-70
2023/11/11 07:33:15;;;;;;;;;3.00;3.00;;;;;-144.24;100.00;60536.00;4974662;28;45841;-70
2023/11/11 07:35:40;;;;;;;;;1.00;1.00;;;;;-144.24;100.00;60536.00;4961201;28;45273;-71
2023/11/11 07:38:06;;;;;;;;;3.00;3.00;;;;;-144.24;100.00;60536.00;4977331;28;46025;-69
2023/11/11 07:40:31;;;;;;;;;2.00;1.00;;;;;-144.24;100.00;60536.00;4962166;28;45450;-70
2023/11/11 07:42:57;;;;;;;;;2.33;2.00;;;;;-144.24;100.00;60536.00;4963817;28;45664;-72
2023/11/11 07:45:24;;;;;;;;;2.00;2.00;;;;;-144.24;100.00;60536.00;4980433;28;45447;-73
2023/11/11 07:47:49;;;;;;;;;2.67;1.00;;;;;-144.24;100.00;60536.00;5070801;23;46486;-72
2023/11/11 07:50:17;;;;;;;;;1.67;1.00;;;;;-144.24;100.00;60536.00;4982072;28;66183;-70
2023/11/11 07:52:43;;;;;;;;;3.00;2.00;;;;;-144.24;100.00;60536.00;4960816;28;45471;-70
2023/11/11 07:55:10;;;;;;;;;1.67;1.67;;;;;-144.24;100.00;60536.00;4985905;28;67825;-70
2023/11/11 07:57:36;;;;;;;;;1.00;1.00;;;;;-144.24;100.00;60536.00;4980510;28;45731;-74
2023/11/11 08:00:03;;;;;;;;;1.00;1.00;;;;;-144.24;100.00;60536.00;4991100;28;45451;-72
2023/11/11 08:02:29;;;;;;;;;1.00;1.00;;;;;-144.24;100.00;60536.00;4983716;28;45494;-69
2023/11/11 08:04:54;;;;;;;;;2.00;1.00;;;;;-144.24;100.00;60536.00;4978603;28;45219;-70
2023/11/11 08:07:20;;;;;;;;;2.00;2.00;;;;;-144.24;100.00;60536.00;4977837;28;68560;-75
2023/11/11 08:09:46;;;;;;;;;0.00;0.00;;;;;-144.24;100.00;60536.00;4980808;28;45274;-73
2023/11/11 08:12:11;;;;;;;;;1.67;1.00;;;;;-144.24;100.00;60536.00;4976072;28;45505;-71
2023/11/11 08:14:37;;;;;;;;;1.00;1.00;;;;;-144.24;100.00;60536.00;4974922;28;51362;-73
2023/11/11 08:17:02;;;;;;;;;1.00;1.00;;;;;-144.24;100.00;60536.00;4972417;28;56124;-71
2023/11/11 08:19:27;;;;;;;;;4.00;1.00;;;;;-144.24;100.00;60536.00;4974911;28;45482;-73
2023/11/11 08:21:53;;;;;;;;;2.00;0.67;;;;;-144.24;100.00;60536.00;4977525;28;45430;-73
2023/11/11 08:24:18;;;;;;;;;6.00;1.00;;;;;-144.24;100.00;60536.00;4977681;28;45648;-74
2023/11/11 08:26:44;;;;;;;;;3.00;1.00;;;;;-144.24;100.00;60536.00;4975888;28;72897;-72
2023/11/11 08:29:09;;;;;;;;;2.00;2.00;;;;;-144.24;100.00;60536.00;4976970;28;73039;-72
2023/11/11 08:31:35;;;;;;;;;1.00;1.00;;;;;-144.24;100.00;60536.00;4975349;28;46042;-72
2023/11/11 08:34:01;;;;;;;;;1.00;1.00;;;;;-144.24;100.00;60536.00;4972234;28;45772;-72
2023/11/11 08:36:27;;;;;;;;;3.00;1.00;;;;;-144.24;100.00;60536.00;4970075;28;46231;-75
2023/11/11 08:38:53;;;;;;;;;2.00;1.00;;;;;-144.24;100.00;60536.00;4976105;28;45488;-72
2023/11/11 08:41:18;;;;;;;;;6.00;2.00;;;;;-144.24;100.00;60536.00;4958584;28;45507;-70
2023/11/11 08:43:44;;;;;;;;;1.67;1.67;;;;;-144.24;100.00;60536.00;4953737;28;45543;-72
2023/11/11 08:46:10;;;;;;;;;3.67;2.00;;;;;-144.24;100.00;60536.00;4956758;28;46674;-70
2023/11/11 08:48:40;;;;;;;;;3.00;2.00;;;;;-144.24;100.00;60536.00;4980870;28;45499;-72
2023/11/11 08:51:09;;;;;;;;;3.67;1.00;;;;;-144.24;100.00;60536.00;4979064;28;45336;-72
2023/11/11 08:53:35;;;;;;;;;6.00;1.33;;;;;-144.24;100.00;60536.00;4978767;28;45443;-71
2023/11/11 08:56:00;;;;;;;;;1.00;1.00;;;;;-144.24;100.00;60536.00;4976446;28;45506;-75
2023/11/11 08:58:26;;;;;;;;;6.67;2.00;;;;;-144.24;100.00;60536.00;4977631;28;45560;-72
2023/11/11 09:00:51;;;;;;;;;1.00;1.00;;;;;-144.24;100.00;60536.00;4977472;28;68606;-69
2023/11/11 09:03:17;;;;;;;;;6.00;2.00;;;;;-144.24;100.00;60536.00;4975802;28;67182;-72
2023/11/11 09:05:42;;;;;;;;;1.00;1.00;;;;;-144.24;100.00;60536.00;4981519;28;45617;-73
2023/11/11 09:08:08;;;;;;;;;2.00;2.00;;;;;-144.24;100.00;60536.00;4986990;28;45406;-74
2023/11/11 09:10:33;;;;;;;;;4.00;2.00;;;;;-144.24;100.00;60536.00;4961925;28;45487;-74
2023/11/11 09:12:58;;;;;;;;;1.00;1.00;;;;;-144.24;100.00;60536.00;4983163;28;45748;-70
2023/11/11 09:15:24;;;;;;;;;2.00;0.33;;;;;-144.24;100.00;60536.00;4958778;28;68807;-73
2023/11/11 09:17:49;;;;;;;;;2.00;2.00;;;;;-144.24;100.00;60536.00;4966623;28;45482;-71
2023/11/11 09:20:16;;;;;;;;;3.00;1.67;;;;;-144.24;100.00;60536.00;4982348;28;45505;-72
2023/11/11 09:22:42;;;;;;;;;4.00;1.33;;;;;-144.24;100.00;60536.00;4984517;28;45565;-74
2023/11/11 09:25:09;;;;;;;;;1.33;1.33;;;;;-144.24;100.00;60536.00;4982855;28;45651;-73
2023/11/11 09:27:34;;;;;;;;;3.00;1.00;;;;;-144.24;100.00;60536.00;4974747;28;45557;-74
2023/11/11 09:29:59;;;;;;;;;3.67;1.67;;;;;-144.24;100.00;60536.00;4978532;28;46065;-74
2023/11/11 09:32:28;;;;;;;;;2.67;1.33;;;;;-144.24;100.00;60536.00;4967909;28;68036;-72
2023/11/11 09:34:53;;;;;;;;;3.00;1.00;;;;;-144.24;100.00;60536.00;4963325;28;46387;-74
2023/11/11 09:37:18;;;;;;;;;3.00;2.00;;;;;-144.24;100.00;60536.00;4966002;28;72885;-72
2023/11/11 09:39:44;;;;;;;;;2.67;2.67;;;;;-144.24;100.00;60536.00;4960955;28;45397;-74
2023/11/11 09:42:09;;;;;;;;;4.00;1.00;;;;;-144.24;100.00;60536.00;4967746;28;45497;-73
2023/11/11 09:44:35;;;;;;;;;4.00;2.00;;;;;-144.24;100.00;60536.00;4963142;28;75642;-74
2023/11/11 09:47:02;;;;;;;;;3.00;1.00;;;;;-144.24;100.00;60536.00;4972280;28;45838;-73
2023/11/11 09:49:28;;;;;;;;;2.00;2.00;;;;;-144.24;100.00;60536.00;4962485;28;45561;-72
2023/11/11 09:51:54;;;;;;;;;5.33;2.00;;;;;-144.24;100.00;60536.00;4952988;28;67715;-73
2023/11/11 09:54:19;;;;;;;;;2.67;2.00;;;;;-144.24;100.00;60536.00;4951476;28;47443;-73
2023/11/11 09:56:45;;;;;;;;;7.00;3.00;;;;;-144.24;100.00;60536.00;4970835;28;49083;-74
2023/11/11 09:59:11;;;;;;;;;5.33;3.00;;;;;-144.24;100.00;60536.00;4969937;28;45462;-75
2023/11/11 10:01:41;;;;;;;;;3.33;3.00;;;;;-144.24;100.00;60536.00;4972427;28;45499;-73
2023/11/11 10:04:06;;;;;;;;;5.33;2.00;;;;;-144.24;100.00;60536.00;4947449;28;45688;-75
2023/11/11 10:06:36;;;;;;;;;2.00;2.00;;;;;-144.24;100.00;60536.00;4959773;28;67951;-74
2023/11/11 10:09:02;;;;;;;;;1.33;0.00;;;;;-144.24;100.00;60536.00;4953041;28;45519;-74
2023/11/11 10:11:28;;;;;;;;;3.00;1.33;;;;;-144.24;100.00;60536.00;4974559;28;45456;-73
2023/11/11 10:13:54;;;;;;;;;3.00;2.00;;;;;-144.24;100.00;60536.00;4980880;28;46528;-72
2023/11/11 10:16:25;;;;;;;;;3.00;3.00;;;;;-144.24;100.00;60536.00;4959544;28;45499;-72
2023/11/11 10:18:51;;;;;;;;;2.33;1.00;;;;;-144.24;100.00;60536.00;4947974;28;45570;-73
2023/11/11 10:21:17;;;;;;;;;2.00;1.33;;;;;-144.24;100.00;60536.00;4965815;28;46586;-72
2023/11/11 10:23:46;;;;;;;;;2.00;2.00;;;;;-144.24;100.00;60536.00;4956506;28;48669;-73
2023/11/11 10:26:12;;;;;;;;;4.00;2.00;;;;;-144.24;100.00;60536.00;4965578;28;45611;-74
2023/11/11 10:28:37;;;;;;;;;4.00;3.00;;;;;-144.24;100.00;60536.00;4976798;28;45849;-74
2023/11/11 10:31:06;;;;;;;;;2.67;1.00;;;;;-144.24;100.00;60536.00;4966935;28;46736;-74
2023/11/11 10:33:32;;;;;;;;;6.67;3.00;;;;;-144.24;100.00;60536.00;4958874;28;46317;-72
2023/11/11 10:35:57;;;;;;;;;2.00;1.00;;;;;-144.24;100.00;60536.00;4974933;28;45484;-74
2023/11/11 10:38:22;;;;;;;;;4.00;1.00;;;;;-144.24;100.00;60536.00;4974846;28;45870;-73
2023/11/11 10:40:50;;;;;;;;;1.00;1.00;;;;;-144.24;100.00;60536.00;4980757;28;67512;-73
2023/11/11 10:43:15;;;;;;;;;1.00;1.00;;;;;-144.24;100.00;60536.00;4977064;28;73258;-73
2023/11/11 10:45:41;;;;;;;;;1.67;1.00;;;;;-144.24;100.00;60536.00;4975254;28;72306;-74
2023/11/11 10:48:07;;;;;;;;;1.00;1.00;;;;;-144.24;100.00;60536.00;4963818;28;45459;-72
2023/11/11 10:50:33;;;;;;;;;4.33;1.00;;;;;-144.24;100.00;60536.00;4984386;28;46008;-73
2023/11/11 10:52:59;;;;;;;;;4.00;2.00;;;;;-144.24;100.00;60536.00;4974890;28;45743;-73
2023/11/11 10:55:26;;;;;;;;;1.00;1.00;;;;;-144.24;100.00;60536.00;4981971;28;45460;-73
2023/11/11 10:57:51;;;;;;;;;3.00;2.00;;;;;-144.24;100.00;60536.00;4990448;28;45427;-73
2023/11/11 11:00:20;;;;;;;;;3.00;1.00;;;;;-144.24;100.00;60536.00;4991190;28;67729;-73
2023/11/11 11:02:49;;;;;;;;;2.00;1.00;;;;;-144.24;100.00;60536.00;4964502;28;46574;-73